sensor_id;sensor_type;location;lat;lon;timestamp;P1;P2;P0
23240;PMS7003;11789;53.482;9.862;2023-02-28T00:00:19;6.67;6.00;5.00
23240;PMS7003;11789;53.482;9.862;2023-02-28T00:02:45;5.67;5.67;4.33
23240;PMS7003;11789;53.482;9.862;2023-02-28T00:05:12;6.33;6.00;4.33
23240;PMS7003;11789;53.482;9.862;2023-02-28T00:07:38;8.00;6.00;5.00
23240;PMS7003;11789;53.482;9.862;2023-02-28T00:10:05;7.00;7.00;6.00
23240;PMS7003;11789;53.482;9.862;2023-02-28T00:12:33;5.00;5.00;3.00
23240;PMS7003;11789;53.482;9.862;2023-02-28T00:15:00;6.67;6.00;5.00
23240;PMS7003;11789;53.482;9.862;2023-02-28T00:17:26;5.67;5.67;3.00
23240;PMS7003;11789;53.482;9.862;2023-02-28T00:19:52;10.67;7.67;5.00
23240;PMS7003;11789;53.482;9.862;2023-02-28T00:22:18;7.67;7.00;5.33
23240;PMS7003;11789;53.482;9.862;2023-02-28T00:24:45;5.67;5.67;5.00
23240;PMS7003;11789;53.482;9.862;2023-02-28T00:27:10;7.67;7.00;6.00
23240;PMS7003;11789;53.482;9.862;2023-02-28T00:29:36;7.00;7.00;5.33
23240;PMS7003;11789;53.482;9.862;2023-02-28T00:32:02;7.67;7.00;5.00
23240;PMS7003;11789;53.482;9.862;2023-02-28T00:34:29;7.00;7.00;5.00
23240;PMS7003;11789;53.482;9.862;2023-02-28T00:36:54;8.33;7.33;6.00
23240;PMS7003;11789;53.482;9.862;2023-02-28T00:39:20;10.67;10.67;7.00
23240;PMS7003;11789;53.482;9.862;2023-02-28T00:41:45;8.33;8.33;6.67
23240;PMS7003;11789;53.482;9.862;2023-02-28T00:44:11;10.67;8.00;6.00
23240;PMS7003;11789;53.482;9.862;2023-02-28T00:46:38;6.33;6.33;6.00
23240;PMS7003;11789;53.482;9.862;2023-02-28T00:49:03;10.00;10.00;6.00
23240;PMS7003;11789;53.482;9.862;2023-02-28T00:51:29;6.00;6.00;5.00
23240;PMS7003;11789;53.482;9.862;2023-02-28T00:53:54;11.33;10.00;6.00
23240;PMS7003;11789;53.482;9.862;2023-02-28T00:56:20;12.00;6.67;5.00
23240;PMS7003;11789;53.482;9.862;2023-02-28T00:58:45;9.33;7.00;5.67
23240;PMS7003;11789;53.482;9.862;2023-02-28T01:01:11;7.00;7.00;6.00
23240;PMS7003;11789;53.482;9.862;2023-02-28T01:03:39;8.00;7.00;5.00
23240;PMS7003;11789;53.482;9.862;2023-02-28T01:06:05;5.67;5.67;5.00
23240;PMS7003;11789;53.482;9.862;2023-02-28T01:08:30;8.33;7.00;6.00
23240;PMS7003;11789;53.482;9.862;2023-02-28T01:11:14;6.67;6.67;5.00
23240;PMS7003;11789;53.482;9.862;2023-02-28T01:13:42;8.33;8.33;6.33
23240;PMS7003;11789;53.482;9.862;2023-02-28T01:16:09;8.67;8.67;6.00
23240;PMS7003;11789;53.482;9.862;2023-02-28T01:18:35;7.00;7.00;5.00
23240;PMS7003;11789;53.482;9.862;2023-02-28T01:21:05;8.33;6.67;5.00
23240;PMS7003;11789;53.482;9.862;2023-02-28T01:23:34;12.67;10.00;6.33
23240;PMS7003;11789;53.482;9.862;2023-02-28T01:26:11;6.00;6.00;3.00
23240;PMS7003;11789;53.482;9.862;2023-02-28T01:28:42;15.33;10.00;6.00
23240;PMS7003;11789;53.482;9.862;2023-02-28T01:31:08;7.00;6.33;4.33
23240;PMS7003;11789;53.482;9.862;2023-02-28T01:33:34;12.67;7.67;6.33
23240;PMS7003;11789;53.482;9.862;2023-02-28T01:36:02;7.00;7.00;5.33
23240;PMS7003;11789;53.482;9.862;2023-02-28T01:38:30;9.33;6.33;5.00
23240;PMS7003;11789;53.482;9.862;2023-02-28T01:40:56;7.33;5.33;5.00
23240;PMS7003;11789;53.482;9.862;2023-02-28T01:43:24;8.33;5.00;3.00
23240;PMS7003;11789;53.482;9.862;2023-02-28T01:45:52;6.00;6.00;5.00
23240;PMS7003;11789;53.482;9.862;2023-02-28T01:48:18;6.33;6.00;3.67
23240;PMS7003;11789;53.482;9.862;2023-02-28T01:50:46;5.33;5.00;5.00
23240;PMS7003;11789;53.482;9.862;2023-02-28T01:53:15;6.00;6.00;5.00
23240;PMS7003;11789;53.482;9.862;2023-02-28T01:55:45;5.67;5.67;3.00
23240;PMS7003;11789;53.482;9.862;2023-02-28T01:58:16;5.00;5.00;3.00
23240;PMS7003;11789;53.482;9.862;2023-02-28T02:00:41;5.00;5.00;3.00
23240;PMS7003;11789;53.482;9.862;2023-02-28T02:03:08;8.67;7.00;4.33
23240;PMS7003;11789;53.482;9.862;2023-02-28T02:05:38;9.00;6.00;5.00
23240;PMS7003;11789;53.482;9.862;2023-02-28T02:08:05;3.00;3.00;3.00
23240;PMS7003;11789;53.482;9.862;2023-02-28T02:19:28;15.33;11.67;7.00
23240;PMS7003;11789;53.482;9.862;2023-02-28T02:27:44;8.33;8.33;7.00
23240;PMS7003;11789;53.482;9.862;2023-02-28T02:36:19;13.33;9.00;5.00
23240;PMS7003;11789;53.482;9.862;2023-02-28T02:42:02;9.00;6.00;5.00
23240;PMS7003;11789;53.482;9.862;2023-02-28T02:44:40;6.00;5.67;3.00
23240;PMS7003;11789;53.482;9.862;2023-02-28T02:47:13;4.33;4.33;3.00
23240;PMS7003;11789;53.482;9.862;2023-02-28T02:49:47;6.33;5.00;2.00
23240;PMS7003;11789;53.482;9.862;2023-02-28T02:52:17;3.00;3.00;3.00
23240;PMS7003;11789;53.482;9.862;2023-02-28T02:54:46;3.00;3.00;2.00
23240;PMS7003;11789;53.482;9.862;2023-02-28T02:57:19;5.00;2.00;2.00
23240;PMS7003;11789;53.482;9.862;2023-02-28T02:59:55;2.00;2.00;1.00
23240;PMS7003;11789;53.482;9.862;2023-02-28T03:02:21;3.67;3.67;2.00
23240;PMS7003;11789;53.482;9.862;2023-02-28T03:04:50;5.67;3.67;2.33
23240;PMS7003;11789;53.482;9.862;2023-02-28T03:07:18;2.00;2.00;1.00
23240;PMS7003;11789;53.482;9.862;2023-02-28T03:09:51;4.00;2.00;2.00
23240;PMS7003;11789;53.482;9.862;2023-02-28T03:12:17;5.00;3.33;2.00
23240;PMS7003;11789;53.482;9.862;2023-02-28T03:14:55;3.67;3.67;3.33
23240;PMS7003;11789;53.482;9.862;2023-02-28T03:17:37;3.33;3.33;2.67
23240;PMS7003;11789;53.482;9.862;2023-02-28T03:20:24;3.33;3.33;2.33
23240;PMS7003;11789;53.482;9.862;2023-02-28T03:23:21;5.67;5.33;3.33
23240;PMS7003;11789;53.482;9.862;2023-02-28T03:25:54;3.33;3.33;2.00
23240;PMS7003;11789;53.482;9.862;2023-02-28T03:34:39;4.00;4.00;2.00
23240;PMS7003;11789;53.482;9.862;2023-02-28T03:37:13;4.67;2.00;2.00
23240;PMS7003;11789;53.482;9.862;2023-02-28T03:39:49;2.00;2.00;2.00
23240;PMS7003;11789;53.482;9.862;2023-02-28T03:42:23;5.00;2.33;2.00
23240;PMS7003;11789;53.482;9.862;2023-02-28T03:50:07;2.00;2.00;2.00
23240;PMS7003;11789;53.482;9.862;2023-02-28T03:52:39;1.33;1.00;1.00
23240;PMS7003;11789;53.482;9.862;2023-02-28T03:55:15;2.67;2.67;1.67
23240;PMS7003;11789;53.482;9.862;2023-02-28T04:00:55;6.67;5.67;4.00
23240;PMS7003;11789;53.482;9.862;2023-02-28T04:03:36;4.67;2.00;1.67
23240;PMS7003;11789;53.482;9.862;2023-02-28T04:06:06;4.67;3.33;2.00
23240;PMS7003;11789;53.482;9.862;2023-02-28T04:08:39;1.67;1.67;1.67
23240;PMS7003;11789;53.482;9.862;2023-02-28T04:11:07;4.00;3.33;2.00
23240;PMS7003;11789;53.482;9.862;2023-02-28T04:13:43;4.00;4.00;2.00
23240;PMS7003;11789;53.482;9.862;2023-02-28T04:16:09;4.00;4.00;2.67
23240;PMS7003;11789;53.482;9.862;2023-02-28T04:18:40;4.00;4.00;2.00
23240;PMS7003;11789;53.482;9.862;2023-02-28T04:21:08;3.33;3.33;2.67
23240;PMS7003;11789;53.482;9.862;2023-02-28T04:23:34;3.33;3.33;2.00
23240;PMS7003;11789;53.482;9.862;2023-02-28T04:25:59;4.33;4.33;4.00
23240;PMS7003;11789;53.482;9.862;2023-02-28T04:28:25;5.67;4.00;2.67
23240;PMS7003;11789;53.482;9.862;2023-02-28T04:30:57;9.33;4.00;2.00
23240;PMS7003;11789;53.482;9.862;2023-02-28T04:33:42;4.00;4.00;1.00
23240;PMS7003;11789;53.482;9.862;2023-02-28T04:36:08;4.00;4.00;3.33
23240;PMS7003;11789;53.482;9.862;2023-02-28T04:38:34;5.00;5.00;4.00
23240;PMS7003;11789;53.482;9.862;2023-02-28T04:41:01;8.00;5.00;5.00
23240;PMS7003;11789;53.482;9.862;2023-02-28T04:46:12;4.33;4.33;4.00
23240;PMS7003;11789;53.482;9.862;2023-02-28T04:48:38;6.00;4.00;3.33
23240;PMS7003;11789;53.482;9.862;2023-02-28T04:51:08;6.00;4.67;2.00
23240;PMS7003;11789;53.482;9.862;2023-02-28T04:53:35;6.00;5.00;4.00
23240;PMS7003;11789;53.482;9.862;2023-02-28T04:56:02;8.00;4.33;4.00
23240;PMS7003;11789;53.482;9.862;2023-02-28T04:58:28;8.00;4.00;4.00
23240;PMS7003;11789;53.482;9.862;2023-02-28T05:01:00;4.33;4.33;4.00
23240;PMS7003;11789;53.482;9.862;2023-02-28T05:03:37;6.00;6.00;4.00
23240;PMS7003;11789;53.482;9.862;2023-02-28T05:06:05;8.00;5.00;4.00
23240;PMS7003;11789;53.482;9.862;2023-02-28T05:08:32;4.33;4.00;2.00
23240;PMS7003;11789;53.482;9.862;2023-02-28T05:10:57;4.00;4.00;4.00
23240;PMS7003;11789;53.482;9.862;2023-02-28T05:13:23;20.33;13.00;8.33
23240;PMS7003;11789;53.482;9.862;2023-02-28T05:15:49;24.33;20.00;9.33
23240;PMS7003;11789;53.482;9.862;2023-02-28T05:18:14;11.67;8.67;6.00
23240;PMS7003;11789;53.482;9.862;2023-02-28T05:20:40;10.67;9.00;5.67
23240;PMS7003;11789;53.482;9.862;2023-02-28T05:23:05;8.33;6.00;5.00
23240;PMS7003;11789;53.482;9.862;2023-02-28T05:25:31;6.00;6.00;4.67
23240;PMS7003;11789;53.482;9.862;2023-02-28T05:27:56;14.67;9.00;6.00
23240;PMS7003;11789;53.482;9.862;2023-02-28T05:30:21;17.67;17.00;9.00
23240;PMS7003;11789;53.482;9.862;2023-02-28T05:32:49;20.00;13.00;5.00
23240;PMS7003;11789;53.482;9.862;2023-02-28T05:35:16;23.67;18.33;9.33
23240;PMS7003;11789;53.482;9.862;2023-02-28T05:37:42;21.33;17.00;10.33
23240;PMS7003;11789;53.482;9.862;2023-02-28T05:40:07;29.33;21.33;12.00
23240;PMS7003;11789;53.482;9.862;2023-02-28T05:42:36;34.33;24.00;12.33
23240;PMS7003;11789;53.482;9.862;2023-02-28T05:45:03;23.33;15.33;8.33
23240;PMS7003;11789;53.482;9.862;2023-02-28T05:47:28;8.33;5.67;1.00
23240;PMS7003;11789;53.482;9.862;2023-02-28T05:49:54;4.00;4.00;2.00
23240;PMS7003;11789;53.482;9.862;2023-02-28T05:52:19;1.00;1.00;0.00
23240;PMS7003;11789;53.482;9.862;2023-02-28T05:54:46;4.00;4.00;2.00
23240;PMS7003;11789;53.482;9.862;2023-02-28T05:57:11;4.00;4.00;2.00
23240;PMS7003;11789;53.482;9.862;2023-02-28T05:59:37;6.00;4.00;2.00
23240;PMS7003;11789;53.482;9.862;2023-02-28T06:02:05;4.00;4.00;2.00
23240;PMS7003;11789;53.482;9.862;2023-02-28T06:04:37;4.00;4.00;4.00
23240;PMS7003;11789;53.482;9.862;2023-02-28T06:07:03;4.00;4.00;2.00
23240;PMS7003;11789;53.482;9.862;2023-02-28T06:09:29;2.00;2.00;2.00
23240;PMS7003;11789;53.482;9.862;2023-02-28T06:11:54;5.33;4.00;2.00
23240;PMS7003;11789;53.482;9.862;2023-02-28T06:14:22;2.67;2.67;2.00
23240;PMS7003;11789;53.482;9.862;2023-02-28T06:16:47;3.00;2.00;2.00
23240;PMS7003;11789;53.482;9.862;2023-02-28T06:19:13;7.67;5.00;4.00
23240;PMS7003;11789;53.482;9.862;2023-02-28T06:21:40;2.67;2.00;1.33
23240;PMS7003;11789;53.482;9.862;2023-02-28T06:24:05;5.00;5.00;4.00
23240;PMS7003;11789;53.482;9.862;2023-02-28T06:26:31;5.00;2.00;2.00
23240;PMS7003;11789;53.482;9.862;2023-02-28T06:28:56;5.67;5.67;4.00
23240;PMS7003;11789;53.482;9.862;2023-02-28T06:31:22;4.00;4.00;3.33
23240;PMS7003;11789;53.482;9.862;2023-02-28T06:33:48;6.33;4.00;2.67
23240;PMS7003;11789;53.482;9.862;2023-02-28T06:36:14;4.00;4.00;2.00
23240;PMS7003;11789;53.482;9.862;2023-02-28T06:38:41;7.67;2.67;2.00
23240;PMS7003;11789;53.482;9.862;2023-02-28T06:41:09;6.00;6.00;4.00
23240;PMS7003;11789;53.482;9.862;2023-02-28T06:43:36;11.00;5.00;4.00
23240;PMS7003;11789;53.482;9.862;2023-02-28T06:46:05;4.67;4.67;4.00
23240;PMS7003;11789;53.482;9.862;2023-02-28T06:48:32;6.00;6.00;4.00
23240;PMS7003;11789;53.482;9.862;2023-02-28T06:51:01;9.00;4.67;2.00
23240;PMS7003;11789;53.482;9.862;2023-02-28T06:53:28;3.33;3.33;2.00
23240;PMS7003;11789;53.482;9.862;2023-02-28T06:55:54;5.00;5.00;2.00
23240;PMS7003;11789;53.482;9.862;2023-02-28T06:58:19;6.00;5.00;4.00
23240;PMS7003;11789;53.482;9.862;2023-02-28T07:00:45;7.33;6.00;4.00
23240;PMS7003;11789;53.482;9.862;2023-02-28T07:03:11;8.00;5.33;2.00
23240;PMS7003;11789;53.482;9.862;2023-02-28T07:05:37;6.67;6.67;5.00
23240;PMS7003;11789;53.482;9.862;2023-02-28T07:08:04;6.00;6.00;4.33
23240;PMS7003;11789;53.482;9.862;2023-02-28T07:10:31;8.00;8.00;4.00
23240;PMS7003;11789;53.482;9.862;2023-02-28T07:13:01;8.33;8.00;5.33
23240;PMS7003;11789;53.482;9.862;2023-02-28T07:15:26;11.33;7.33;6.00
23240;PMS7003;11789;53.482;9.862;2023-02-28T07:17:51;10.67;10.67;9.00
23240;PMS7003;11789;53.482;9.862;2023-02-28T07:20:17;15.67;13.67;10.67
23240;PMS7003;11789;53.482;9.862;2023-02-28T07:22:42;10.67;10.67;8.33
23240;PMS7003;11789;53.482;9.862;2023-02-28T07:25:08;9.00;9.00;6.00
23240;PMS7003;11789;53.482;9.862;2023-02-28T07:27:34;11.00;11.00;7.00
23240;PMS7003;11789;53.482;9.862;2023-02-28T07:29:59;9.67;9.67;6.00
23240;PMS7003;11789;53.482;9.862;2023-02-28T07:32:28;13.33;10.67;7.00
23240;PMS7003;11789;53.482;9.862;2023-02-28T07:34:54;18.33;18.33;12.67
23240;PMS7003;11789;53.482;9.862;2023-02-28T07:37:20;19.00;13.00;8.00
23240;PMS7003;11789;53.482;9.862;2023-02-28T07:39:45;12.33;12.33;9.00
23240;PMS7003;11789;53.482;9.862;2023-02-28T07:42:11;15.33;15.33;10.00
23240;PMS7003;11789;53.482;9.862;2023-02-28T07:44:40;22.67;20.67;14.67
23240;PMS7003;11789;53.482;9.862;2023-02-28T07:47:07;19.25;18.00;13.00
23240;PMS7003;11789;53.482;9.862;2023-02-28T07:49:33;17.75;17.75;12.00
23240;PMS7003;11789;53.482;9.862;2023-02-28T07:51:59;10.00;10.00;7.25
23240;PMS7003;11789;53.482;9.862;2023-02-28T07:54:25;7.50;7.50;5.00
23240;PMS7003;11789;53.482;9.862;2023-02-28T07:56:50;12.00;12.00;8.00
23240;PMS7003;11789;53.482;9.862;2023-02-28T07:59:16;13.50;11.00;9.00
23240;PMS7003;11789;53.482;9.862;2023-02-28T08:01:41;14.25;13.00;10.50
23240;PMS7003;11789;53.482;9.862;2023-02-28T08:04:09;10.25;10.25;8.50
23240;PMS7003;11789;53.482;9.862;2023-02-28T08:06:35;11.50;10.00;8.00
23240;PMS7003;11789;53.482;9.862;2023-02-28T08:09:00;11.25;10.00;5.75
23240;PMS7003;11789;53.482;9.862;2023-02-28T08:11:25;6.00;6.00;5.00
23240;PMS7003;11789;53.482;9.862;2023-02-28T08:13:51;8.50;8.50;6.75
23240;PMS7003;11789;53.482;9.862;2023-02-28T08:16:21;11.00;11.00;7.75
23240;PMS7003;11789;53.482;9.862;2023-02-28T08:18:50;15.25;9.50;8.00
23240;PMS7003;11789;53.482;9.862;2023-02-28T08:21:17;11.75;11.00;9.00
23240;PMS7003;11789;53.482;9.862;2023-02-28T08:23:43;13.50;10.50;8.25
23240;PMS7003;11789;53.482;9.862;2023-02-28T08:26:11;7.25;7.25;5.00
23240;PMS7003;11789;53.482;9.862;2023-02-28T08:28:36;9.00;9.00;6.00
23240;PMS7003;11789;53.482;9.862;2023-02-28T08:31:06;7.50;5.75;5.00
23240;PMS7003;11789;53.482;9.862;2023-02-28T08:33:33;5.25;4.75;3.75
23240;PMS7003;11789;53.482;9.862;2023-02-28T08:35:59;8.50;7.75;6.25
23240;PMS7003;11789;53.482;9.862;2023-02-28T08:38:25;6.25;6.25;5.00
23240;PMS7003;11789;53.482;9.862;2023-02-28T08:40:56;5.50;5.50;4.25
23240;PMS7003;11789;53.482;9.862;2023-02-28T08:43:23;5.00;5.00;3.75
23240;PMS7003;11789;53.482;9.862;2023-02-28T08:45:51;5.75;4.50;3.50
23240;PMS7003;11789;53.482;9.862;2023-02-28T08:48:17;9.25;5.75;5.00
23240;PMS7003;11789;53.482;9.862;2023-02-28T08:50:42;5.25;4.25;3.50
23240;PMS7003;11789;53.482;9.862;2023-02-28T08:53:08;6.50;6.00;4.00
23240;PMS7003;11789;53.482;9.862;2023-02-28T08:55:33;6.25;6.25;5.00
23240;PMS7003;11789;53.482;9.862;2023-02-28T08:57:59;9.00;7.00;5.00
23240;PMS7003;11789;53.482;9.862;2023-02-28T09:00:26;6.50;6.00;5.00
23240;PMS7003;11789;53.482;9.862;2023-02-28T09:02:51;6.75;6.75;5.00
23240;PMS7003;11789;53.482;9.862;2023-02-28T09:05:17;6.00;6.00;5.00
23240;PMS7003;11789;53.482;9.862;2023-02-28T09:07:42;3.25;3.25;3.00
23240;PMS7003;11789;53.482;9.862;2023-02-28T09:10:08;4.25;4.25;3.75
23240;PMS7003;11789;53.482;9.862;2023-02-28T09:12:34;5.00;5.00;4.00
23240;PMS7003;11789;53.482;9.862;2023-02-28T09:15:00;2.50;2.50;2.00
23240;PMS7003;11789;53.482;9.862;2023-02-28T09:17:26;2.75;2.75;2.00
23240;PMS7003;11789;53.482;9.862;2023-02-28T09:22:35;1.25;1.25;1.00
23240;PMS7003;11789;53.482;9.862;2023-02-28T09:25:01;1.75;1.75;1.00
23240;PMS7003;11789;53.482;9.862;2023-02-28T09:27:29;1.00;1.00;1.00
23240;PMS7003;11789;53.482;9.862;2023-02-28T09:29:54;1.00;1.00;1.00
23240;PMS7003;11789;53.482;9.862;2023-02-28T09:32:20;1.00;1.00;1.00
23240;PMS7003;11789;53.482;9.862;2023-02-28T09:34:45;0.50;0.50;0.00
23240;PMS7003;11789;53.482;9.862;2023-02-28T09:37:11;0.00;0.00;0.00
23240;PMS7003;11789;53.482;9.862;2023-02-28T09:39:36;0.00;0.00;0.00
23240;PMS7003;11789;53.482;9.862;2023-02-28T09:42:02;1.00;1.00;0.75
23240;PMS7003;11789;53.482;9.862;2023-02-28T09:44:36;0.75;0.00;0.00
23240;PMS7003;11789;53.482;9.862;2023-02-28T09:47:10;0.25;0.25;0.00
23240;PMS7003;11789;53.482;9.862;2023-02-28T09:49:51;0.00;0.00;0.00
23240;PMS7003;11789;53.482;9.862;2023-02-28T09:52:19;1.00;1.00;1.00
23240;PMS7003;11789;53.482;9.862;2023-02-28T09:54:47;1.75;1.75;1.50
23240;PMS7003;11789;53.482;9.862;2023-02-28T09:57:31;2.50;1.00;1.00
23240;PMS7003;11789;53.482;9.862;2023-02-28T10:00:46;0.75;0.75;0.75
23240;PMS7003;11789;53.482;9.862;2023-02-28T10:08:21;0.00;0.00;0.00
23240;PMS7003;11789;53.482;9.862;2023-02-28T10:11:03;1.00;1.00;1.00
23240;PMS7003;11789;53.482;9.862;2023-02-28T10:13:34;0.25;0.25;0.25
23240;PMS7003;11789;53.482;9.862;2023-02-28T10:16:12;1.00;1.00;0.75
23240;PMS7003;11789;53.482;9.862;2023-02-28T10:18:48;0.00;0.00;0.00
23240;PMS7003;11789;53.482;9.862;2023-02-28T10:21:30;0.25;0.25;0.25
23240;PMS7003;11789;53.482;9.862;2023-02-28T10:24:05;0.00;0.00;0.00
23240;PMS7003;11789;53.482;9.862;2023-02-28T10:26:44;1.00;1.00;1.00
23240;PMS7003;11789;53.482;9.862;2023-02-28T10:29:13;1.00;1.00;0.00
23240;PMS7003;11789;53.482;9.862;2023-02-28T10:31:40;3.00;2.00;1.75
23240;PMS7003;11789;53.482;9.862;2023-02-28T10:34:07;1.25;1.25;1.25
23240;PMS7003;11789;53.482;9.862;2023-02-28T10:36:36;1.75;1.75;1.00
23240;PMS7003;11789;53.482;9.862;2023-02-28T10:39:19;1.00;1.00;0.75
23240;PMS7003;11789;53.482;9.862;2023-02-28T10:42:05;1.00;0.75;0.75
23240;PMS7003;11789;53.482;9.862;2023-02-28T10:45:03;1.00;1.00;1.00
23240;PMS7003;11789;53.482;9.862;2023-02-28T10:47:34;1.00;1.00;1.00
23240;PMS7003;11789;53.482;9.862;2023-02-28T10:50:02;1.50;1.50;1.00
23240;PMS7003;11789;53.482;9.862;2023-02-28T10:52:46;2.00;1.00;1.00
23240;PMS7003;11789;53.482;9.862;2023-02-28T10:55:30;1.00;1.00;1.00
23240;PMS7003;11789;53.482;9.862;2023-02-28T10:57:56;0.50;0.50;0.00
23240;PMS7003;11789;53.482;9.862;2023-02-28T11:00:23;1.00;1.00;1.00
23240;PMS7003;11789;53.482;9.862;2023-02-28T11:02:50;1.00;1.00;1.00
23240;PMS7003;11789;53.482;9.862;2023-02-28T11:05:37;0.75;0.75;0.00
23240;PMS7003;11789;53.482;9.862;2023-02-28T11:08:06;1.00;1.00;1.00
23240;PMS7003;11789;53.482;9.862;2023-02-28T11:10:37;1.00;1.00;0.25
23240;PMS7003;11789;53.482;9.862;2023-02-28T11:13:03;1.25;1.25;1.00
23240;PMS7003;11789;53.482;9.862;2023-02-28T11:15:31;1.00;1.00;1.00
23240;PMS7003;11789;53.482;9.862;2023-02-28T11:17:59;2.00;2.00;1.00
23240;PMS7003;11789;53.482;9.862;2023-02-28T11:20:28;3.00;1.25;1.25
23240;PMS7003;11789;53.482;9.862;2023-02-28T11:22:57;1.00;1.00;1.00
23240;PMS7003;11789;53.482;9.862;2023-02-28T11:25:27;2.00;2.00;1.25
23240;PMS7003;11789;53.482;9.862;2023-02-28T11:27:55;1.25;1.25;1.25
23240;PMS7003;11789;53.482;9.862;2023-02-28T11:35:53;2.00;2.00;1.75
23240;PMS7003;11789;53.482;9.862;2023-02-28T11:38:24;1.75;1.75;1.00
23240;PMS7003;11789;53.482;9.862;2023-02-28T11:49:14;3.00;3.00;2.75
23240;PMS7003;11789;53.482;9.862;2023-02-28T11:54:59;2.00;2.00;2.00
23240;PMS7003;11789;53.482;9.862;2023-02-28T11:57:41;2.50;2.50;2.25
23240;PMS7003;11789;53.482;9.862;2023-02-28T12:00:33;3.50;2.50;2.00
23240;PMS7003;11789;53.482;9.862;2023-02-28T12:19:50;3.25;3.00;2.50
23240;PMS7003;11789;53.482;9.862;2023-02-28T12:27:33;3.00;3.00;2.25
23240;PMS7003;11789;53.482;9.862;2023-02-28T12:38:17;5.00;4.00;3.00
23240;PMS7003;11789;53.482;9.862;2023-02-28T12:44:06;7.75;4.00;3.00
23240;PMS7003;11789;53.482;9.862;2023-02-28T12:46:51;4.00;4.00;3.00
23240;PMS7003;11789;53.482;9.862;2023-02-28T12:49:23;5.50;3.75;3.00
23240;PMS7003;11789;53.482;9.862;2023-02-28T12:51:50;2.75;2.75;2.00
23240;PMS7003;11789;53.482;9.862;2023-02-28T12:54:19;3.75;3.00;2.25
23240;PMS7003;11789;53.482;9.862;2023-02-28T12:57:00;4.75;3.00;3.00
23240;PMS7003;11789;53.482;9.862;2023-02-28T12:59:38;2.25;2.25;2.00
23240;PMS7003;11789;53.482;9.862;2023-02-28T13:04:47;3.00;1.75;1.00
23240;PMS7003;11789;53.482;9.862;2023-02-28T13:07:42;1.25;1.25;1.00
23240;PMS7003;11789;53.482;9.862;2023-02-28T13:10:14;1.25;1.25;1.00
23240;PMS7003;11789;53.482;9.862;2023-02-28T13:12:53;2.00;2.00;1.00
23240;PMS7003;11789;53.482;9.862;2023-02-28T13:17:51;1.00;1.00;1.00
23240;PMS7003;11789;53.482;9.862;2023-02-28T13:20:19;2.00;2.00;1.00
23240;PMS7003;11789;53.482;9.862;2023-02-28T13:22:49;1.00;1.00;1.00
23240;PMS7003;11789;53.482;9.862;2023-02-28T13:27:58;2.00;2.00;1.00
23240;PMS7003;11789;53.482;9.862;2023-02-28T13:38:44;1.00;1.00;1.00
23240;PMS7003;11789;53.482;9.862;2023-02-28T13:44:06;2.00;2.00;1.00
23240;PMS7003;11789;53.482;9.862;2023-02-28T13:58:23;1.00;1.00;1.00
23240;PMS7003;11789;53.482;9.862;2023-02-28T14:03:18;1.00;1.00;1.00
23240;PMS7003;11789;53.482;9.862;2023-02-28T14:06:09;4.25;4.00;3.00
23240;PMS7003;11789;53.482;9.862;2023-02-28T14:08:52;2.25;2.00;2.00
23240;PMS7003;11789;53.482;9.862;2023-02-28T14:11:27;2.00;2.00;1.25
23240;PMS7003;11789;53.482;9.862;2023-02-28T14:13:58;1.50;1.50;1.00
23240;PMS7003;11789;53.482;9.862;2023-02-28T14:16:26;2.00;2.00;2.00
23240;PMS7003;11789;53.482;9.862;2023-02-28T14:19:00;5.50;2.50;2.00
23240;PMS7003;11789;53.482;9.862;2023-02-28T14:21:35;3.00;3.00;2.00
23240;PMS7003;11789;53.482;9.862;2023-02-28T14:24:13;1.50;1.50;1.00
23240;PMS7003;11789;53.482;9.862;2023-02-28T14:28:08;4.25;2.75;2.00
23240;PMS7003;11789;53.482;9.862;2023-02-28T14:38:05;6.00;3.00;2.00
23240;PMS7003;11789;53.482;9.862;2023-02-28T14:40:33;5.00;4.00;3.00
23240;PMS7003;11789;53.482;9.862;2023-02-28T14:43:03;4.00;3.00;2.00
23240;PMS7003;11789;53.482;9.862;2023-02-28T14:45:31;6.00;4.25;3.00
23240;PMS7003;11789;53.482;9.862;2023-02-28T14:47:58;4.75;4.75;3.50
23240;PMS7003;11789;53.482;9.862;2023-02-28T14:50:27;3.00;3.00;2.50
23240;PMS7003;11789;53.482;9.862;2023-02-28T14:52:56;4.75;4.50;3.00
23240;PMS7003;11789;53.482;9.862;2023-02-28T14:55:26;4.00;3.50;3.00
23240;PMS7003;11789;53.482;9.862;2023-02-28T14:57:57;4.50;3.00;2.25
23240;PMS7003;11789;53.482;9.862;2023-02-28T15:05:58;3.25;3.25;3.00
23240;PMS7003;11789;53.482;9.862;2023-02-28T15:08:28;4.25;4.00;3.00
23240;PMS7003;11789;53.482;9.862;2023-02-28T15:13:51;4.25;4.25;3.25
23240;PMS7003;11789;53.482;9.862;2023-02-28T15:16:22;5.00;5.00;3.00
23240;PMS7003;11789;53.482;9.862;2023-02-28T15:19:00;4.50;4.25;3.25
23240;PMS7003;11789;53.482;9.862;2023-02-28T15:21:34;5.25;5.25;4.25
23240;PMS7003;11789;53.482;9.862;2023-02-28T15:24:07;6.50;4.50;4.00
23240;PMS7003;11789;53.482;9.862;2023-02-28T15:26:41;7.00;7.00;4.00
23240;PMS7003;11789;53.482;9.862;2023-02-28T15:29:20;4.00;4.00;4.00
23240;PMS7003;11789;53.482;9.862;2023-02-28T15:31:49;5.00;5.00;4.00
23240;PMS7003;11789;53.482;9.862;2023-02-28T15:34:26;6.00;4.00;3.00
23240;PMS7003;11789;53.482;9.862;2023-02-28T15:36:58;7.00;5.25;4.50
23240;PMS7003;11789;53.482;9.862;2023-02-28T15:44:57;4.50;4.50;3.00
23240;PMS7003;11789;53.482;9.862;2023-02-28T15:47:26;9.50;7.50;5.00
23240;PMS7003;11789;53.482;9.862;2023-02-28T15:50:03;8.75;4.25;4.00
23240;PMS7003;11789;53.482;9.862;2023-02-28T15:52:38;5.50;4.00;3.25
23240;PMS7003;11789;53.482;9.862;2023-02-28T15:55:26;9.00;5.00;4.00
23240;PMS7003;11789;53.482;9.862;2023-02-28T15:57:54;4.25;4.25;3.75
23240;PMS7003;11789;53.482;9.862;2023-02-28T16:00:24;6.25;4.00;3.75
23240;PMS7003;11789;53.482;9.862;2023-02-28T16:06:07;6.75;4.75;3.25
23240;PMS7003;11789;53.482;9.862;2023-02-28T16:08:59;3.75;3.75;2.50
23240;PMS7003;11789;53.482;9.862;2023-02-28T16:11:24;7.75;3.75;2.00
23240;PMS7003;11789;53.482;9.862;2023-02-28T16:13:50;4.00;4.00;3.00
23240;PMS7003;11789;53.482;9.862;2023-02-28T16:16:19;4.50;4.50;3.00
23240;PMS7003;11789;53.482;9.862;2023-02-28T16:18:49;9.50;9.25;8.00
23240;PMS7003;11789;53.482;9.862;2023-02-28T16:21:15;19.50;16.25;12.50
23240;PMS7003;11789;53.482;9.862;2023-02-28T16:23:41;15.50;13.00;9.75
23240;PMS7003;11789;53.482;9.862;2023-02-28T16:26:06;7.25;7.25;5.00
23240;PMS7003;11789;53.482;9.862;2023-02-28T16:28:34;20.50;20.50;15.75
23240;PMS7003;11789;53.482;9.862;2023-02-28T16:31:03;16.50;15.00;11.00
23240;PMS7003;11789;53.482;9.862;2023-02-28T16:33:31;9.00;9.00;6.50
23240;PMS7003;11789;53.482;9.862;2023-02-28T16:35:58;8.00;5.00;4.00
23240;PMS7003;11789;53.482;9.862;2023-02-28T16:38:24;9.00;9.00;7.00
23240;PMS7003;11789;53.482;9.862;2023-02-28T16:40:51;9.75;9.75;8.00
23240;PMS7003;11789;53.482;9.862;2023-02-28T16:43:22;9.75;8.00;7.00
23240;PMS7003;11789;53.482;9.862;2023-02-28T16:45:54;7.50;7.50;7.00
23240;PMS7003;11789;53.482;9.862;2023-02-28T16:48:21;10.25;8.75;7.25
23240;PMS7003;11789;53.482;9.862;2023-02-28T16:50:47;8.50;7.00;5.00
23240;PMS7003;11789;53.482;9.862;2023-02-28T16:53:12;7.00;7.00;4.75
23240;PMS7003;11789;53.482;9.862;2023-02-28T16:55:38;7.00;7.00;4.00
23240;PMS7003;11789;53.482;9.862;2023-02-28T16:58:04;5.25;5.25;4.00
23240;PMS7003;11789;53.482;9.862;2023-02-28T17:00:30;5.25;4.00;3.00
23240;PMS7003;11789;53.482;9.862;2023-02-28T17:02:58;7.50;6.00;4.00
23240;PMS7003;11789;53.482;9.862;2023-02-28T17:05:24;5.00;4.25;3.50
23240;PMS7003;11789;53.482;9.862;2023-02-28T17:07:52;7.00;5.00;4.00
23240;PMS7003;11789;53.482;9.862;2023-02-28T17:10:18;3.50;3.50;3.25